createdAt,value
2018-06-11T07:05:58.193Z,744.00
2018-06-11T07:06:58.176Z,1696.00
2018-06-11T07:07:58.178Z,8956.00
2018-06-11T07:08:58.174Z,9612.00
2018-06-11T07:09:58.183Z,9788.00
2018-06-11T07:10:58.229Z,9576.00
2018-06-11T07:11:58.188Z,8944.00
2018-06-11T07:12:58.191Z,8692.00
2018-06-11T07:13:58.197Z,8788.00
2018-06-11T07:14:58.199Z,8820.00
2018-06-11T07:15:58.205Z,8512.00
2018-06-11T07:16:58.211Z,8608.00
2018-06-11T07:17:58.212Z,8800.00
2018-06-11T07:18:58.221Z,8652.00
2018-06-11T07:19:58.226Z,8836.00
2018-06-11T07:20:58.230Z,8752.00
2018-06-11T07:21:58.238Z,8800.00
2018-06-11T07:22:58.245Z,8300.00
2018-06-11T07:23:58.248Z,7252.00
2018-06-11T07:24:58.255Z,6576.00
2018-06-11T07:25:58.261Z,6184.00
2018-06-11T07:26:58.264Z,6012.00
2018-06-11T07:27:58.271Z,6104.00
2018-06-11T07:28:58.277Z,6300.00
2018-06-11T07:29:58.286Z,6264.00
2018-06-11T07:30:58.293Z,5832.00
2018-06-11T07:31:58.297Z,5788.00
2018-06-11T07:32:58.304Z,5928.00
2018-06-11T07:33:58.311Z,6252.00
2018-06-11T07:34:58.367Z,6660.00
2018-06-11T07:35:58.322Z,7040.00
2018-06-11T07:36:58.336Z,7460.00
2018-06-11T07:37:58.337Z,7944.00
2018-06-11T07:38:58.343Z,8404.00
2018-06-11T07:39:58.351Z,9072.00
2018-06-11T07:40:58.393Z,9912.00
2018-06-11T07:41:58.361Z,10384.00
2018-06-11T07:42:58.368Z,10736.00
2018-06-11T07:43:58.376Z,10640.00
2018-06-11T07:44:58.381Z,9932.00
2018-06-11T07:45:58.390Z,8952.00
2018-06-11T07:46:58.390Z,8212.00
2018-06-11T07:47:58.435Z,7776.00
2018-06-11T07:48:58.411Z,6728.00
2018-06-11T07:49:58.416Z,5972.00
2018-06-11T07:50:58.425Z,6120.00
2018-06-11T07:51:58.428Z,7012.00
2018-06-11T07:52:58.436Z,7636.00
2018-06-11T07:53:58.443Z,7556.00
2018-06-11T07:54:58.448Z,7132.00
2018-06-11T07:55:58.457Z,6420.00
2018-06-11T07:56:58.462Z,5712.00
2018-06-11T07:57:58.470Z,5372.00
2018-06-11T07:58:58.476Z,5348.00
2018-06-11T07:59:58.513Z,5456.00
2018-06-11T08:00:58.490Z,5432.00
2018-06-11T08:01:58.496Z,5192.00
2018-06-11T08:02:58.502Z,4904.00
2018-06-11T08:03:58.513Z,4976.00
2018-06-11T08:04:58.518Z,5296.00
2018-06-11T08:05:58.524Z,5488.00
2018-06-11T08:06:58.530Z,5364.00
2018-06-11T08:07:58.538Z,5180.00
2018-06-11T08:08:58.549Z,4956.00
2018-06-11T08:09:58.550Z,4708.00
2018-06-11T08:10:58.556Z,4588.00
2018-06-11T08:11:58.562Z,4864.00
2018-06-11T08:12:58.563Z,5312.00
2018-06-11T08:13:58.576Z,5676.00
2018-06-11T08:14:58.581Z,5868.00
2018-06-11T08:15:58.587Z,5776.00
2018-06-11T08:16:58.594Z,5608.00
2018-06-11T08:17:58.601Z,5740.00
2018-06-11T08:18:58.604Z,5944.00
2018-06-11T08:19:58.613Z,5888.00
2018-06-11T08:20:58.618Z,5848.00
2018-06-11T08:21:58.625Z,5780.00
2018-06-11T08:22:58.628Z,5596.00
2018-06-11T08:23:58.638Z,5348.00
2018-06-11T08:24:58.642Z,5192.00
2018-06-11T08:25:58.647Z,5144.00
2018-06-11T08:26:58.656Z,5092.00
2018-06-11T08:27:58.661Z,5060.00
2018-06-11T08:28:58.670Z,5128.00
2018-06-11T08:29:58.675Z,5156.00
2018-06-11T08:30:58.684Z,5276.00
2018-06-11T08:31:58.687Z,5264.00
2018-06-11T08:32:58.694Z,5248.00
2018-06-11T08:33:58.706Z,5304.00
2018-06-11T08:34:58.705Z,5488.00
2018-06-11T08:35:58.713Z,5776.00
2018-06-11T08:36:58.713Z,6168.00
2018-06-11T08:37:58.720Z,6624.00
2018-06-11T08:38:58.731Z,7076.00
2018-06-11T08:39:58.736Z,7540.00
2018-06-11T08:40:58.748Z,8072.00
2018-06-11T08:41:58.749Z,8652.00
2018-06-11T08:42:58.757Z,9224.00
2018-06-11T08:43:58.765Z,9292.00
2018-06-11T08:44:58.769Z,8656.00
2018-06-11T08:45:58.777Z,7812.00
2018-06-11T08:46:58.778Z,7600.00
2018-06-11T08:47:58.795Z,8636.00
2018-06-11T08:48:58.795Z,9888.00
2018-06-11T08:49:58.805Z,9680.00
2018-06-11T08:50:58.802Z,9164.00
2018-06-11T08:51:58.814Z,8420.00
2018-06-11T08:52:58.823Z,7592.00
2018-06-11T08:53:58.829Z,7360.00
2018-06-11T08:54:58.835Z,7924.00
2018-06-11T08:55:58.841Z,7560.00
2018-06-11T08:56:58.850Z,6420.00
2018-06-11T08:57:58.855Z,6704.00
2018-06-11T08:58:58.859Z,7396.00
2018-06-11T08:59:58.882Z,7728.00
2018-06-11T09:00:58.895Z,7668.00
2018-06-11T09:01:58.884Z,7200.00
2018-06-11T09:02:58.890Z,6584.00
2018-06-11T09:03:58.899Z,6044.00
2018-06-11T09:04:58.904Z,5840.00
2018-06-11T09:05:58.912Z,6004.00
2018-06-11T09:06:58.969Z,6320.00
2018-06-11T09:07:58.924Z,6748.00
2018-06-11T09:08:58.932Z,7416.00
2018-06-11T09:09:58.933Z,8468.00
2018-06-11T09:10:58.946Z,9788.00
2018-06-11T09:11:58.951Z,11116.00
2018-06-11T09:12:58.959Z,11940.00
2018-06-11T09:13:58.967Z,12064.00
2018-06-11T09:14:59.016Z,11860.00
2018-06-11T09:15:58.976Z,10896.00
2018-06-11T09:16:58.991Z,10092.00
2018-06-11T09:17:59.071Z,9940.00
2018-06-11T09:18:59.001Z,10464.00
2018-06-11T09:19:59.008Z,11516.00
2018-06-11T09:20:59.016Z,12468.00
2018-06-11T09:21:59.017Z,12996.00
2018-06-11T09:22:59.032Z,13124.00
2018-06-11T09:23:59.041Z,13036.00
2018-06-11T09:24:59.067Z,13236.00
2018-06-11T09:25:59.060Z,14324.00
2018-06-11T09:26:59.061Z,16300.00
2018-06-11T09:27:59.067Z,17408.00
2018-06-11T09:28:59.075Z,16864.00
2018-06-11T09:29:59.083Z,15364.00
2018-06-11T09:30:59.107Z,15724.00
2018-06-11T09:31:59.099Z,16960.00
2018-06-11T09:32:59.107Z,17440.00
2018-06-11T09:33:59.114Z,17408.00
2018-06-11T09:34:59.123Z,17472.00
2018-06-11T09:35:59.133Z,17760.00
2018-06-11T09:36:59.140Z,17856.00
2018-06-11T09:37:59.146Z,17664.00
2018-06-11T09:38:59.153Z,17664.00
2018-06-11T09:39:59.161Z,17856.00
2018-06-11T09:40:59.166Z,18016.00
2018-06-11T09:41:59.183Z,17952.00
2018-06-11T09:42:59.182Z,17920.00
2018-06-11T09:43:59.249Z,18080.00
2018-06-11T09:44:59.206Z,18240.00
2018-06-11T09:45:59.216Z,18432.00
2018-06-11T09:46:59.226Z,18816.00
2018-06-11T09:47:59.235Z,19392.00
2018-06-11T09:48:59.253Z,19712.00
2018-06-11T09:49:59.252Z,19808.00
2018-06-11T09:50:59.260Z,19200.00
2018-06-11T09:51:59.268Z,16340.00
2018-06-11T09:52:59.274Z,14788.00
2018-06-11T09:53:59.280Z,14900.00
2018-06-11T09:54:59.296Z,15424.00
2018-06-11T09:55:59.309Z,16352.00
2018-06-11T09:56:59.314Z,16960.00
2018-06-11T09:57:59.326Z,16272.00
2018-06-11T09:58:59.333Z,17056.00
2018-06-11T09:59:59.342Z,16640.00
2018-06-11T10:00:59.354Z,14624.00
2018-06-11T10:01:59.362Z,13432.00
2018-06-11T10:02:59.364Z,13552.00
2018-06-11T10:03:59.374Z,13868.00
2018-06-11T10:04:59.390Z,15032.00
2018-06-11T10:05:59.393Z,15284.00
2018-06-11T10:06:59.408Z,14612.00
2018-06-11T10:07:59.419Z,15140.00
2018-06-11T10:08:59.429Z,16308.00
2018-06-11T10:09:59.437Z,16768.00
2018-06-11T10:10:59.444Z,16268.00
2018-06-11T10:11:59.454Z,15648.00
2018-06-11T10:12:59.460Z,14756.00
2018-06-11T10:13:59.473Z,13736.00
2018-06-11T10:14:59.479Z,11720.00
2018-06-11T10:15:59.488Z,10344.00
2018-06-11T10:16:59.497Z,10100.00
2018-06-11T10:17:59.509Z,10592.00
2018-06-11T10:18:59.523Z,12112.00
2018-06-11T10:19:59.530Z,14108.00
2018-06-11T10:20:59.538Z,15192.00
2018-06-11T10:21:59.546Z,15488.00
2018-06-11T10:22:59.549Z,16576.00
2018-06-11T10:23:59.562Z,17472.00
2018-06-11T10:24:59.574Z,18400.00
2018-06-11T10:25:59.585Z,18464.00
2018-06-11T10:26:59.591Z,18272.00
2018-06-11T10:27:59.601Z,18144.00
2018-06-11T10:28:59.605Z,17888.00
2018-06-11T10:29:59.618Z,17440.00
2018-06-11T10:30:59.628Z,16512.00
2018-06-11T10:31:59.638Z,15760.00
2018-06-11T10:32:59.644Z,14772.00
2018-06-11T10:33:59.656Z,12972.00
2018-06-11T10:34:59.670Z,12544.00
2018-06-11T10:35:59.675Z,12280.00
2018-06-11T10:36:59.759Z,13752.00
2018-06-11T10:37:59.693Z,14876.00
2018-06-11T10:38:59.702Z,15692.00
2018-06-11T10:39:59.716Z,16704.00
2018-06-11T10:40:59.720Z,17440.00
2018-06-11T10:41:59.730Z,17824.00
2018-06-11T10:42:59.736Z,18208.00
2018-06-11T10:43:59.746Z,19072.00
2018-06-11T10:44:59.756Z,19712.00
2018-06-11T10:45:59.761Z,19104.00
2018-06-11T10:46:59.775Z,19296.00
2018-06-11T10:47:59.786Z,18464.00
2018-06-11T10:48:59.793Z,16192.00
2018-06-11T10:49:59.807Z,15088.00
2018-06-11T10:50:59.812Z,15536.00
2018-06-11T10:51:59.824Z,16640.00
2018-06-11T10:52:59.844Z,16736.00
2018-06-11T10:53:59.842Z,17120.00
2018-06-11T10:54:59.850Z,18304.00
2018-06-11T10:55:59.861Z,19008.00
2018-06-11T10:56:59.873Z,18528.00
2018-06-11T10:57:59.918Z,17184.00
2018-06-11T10:58:59.890Z,16256.00
2018-06-11T10:59:59.902Z,15676.00
2018-06-11T11:00:59.916Z,16512.00
2018-06-11T11:01:59.915Z,17472.00
2018-06-11T11:02:59.929Z,17664.00
2018-06-11T11:03:59.943Z,16704.00
2018-06-11T11:04:59.941Z,16960.00
2018-06-11T11:05:59.959Z,16864.00
2018-06-11T11:06:59.968Z,17056.00
2018-06-11T11:07:59.978Z,16128.00
2018-06-11T11:08:59.989Z,14976.00
2018-06-11T11:10:00.000Z,14552.00
2018-06-11T11:11:00.027Z,15064.00
2018-06-11T11:12:00.018Z,15492.00
2018-06-11T11:13:00.027Z,16200.00
2018-06-11T11:14:00.037Z,16404.00
2018-06-11T11:15:00.052Z,15384.00
2018-06-11T11:16:00.051Z,14388.00
2018-06-11T11:17:00.069Z,13464.00
2018-06-11T11:18:00.077Z,12972.00
2018-06-11T11:19:00.088Z,13240.00
2018-06-11T11:20:00.097Z,13876.00
2018-06-11T11:21:00.109Z,14316.00
2018-06-11T11:22:00.118Z,14860.00
2018-06-11T11:23:00.142Z,14800.00
2018-06-11T11:24:00.182Z,14180.00
2018-06-11T11:25:00.146Z,13820.00
2018-06-11T11:26:00.158Z,13608.00
2018-06-11T11:27:00.167Z,13748.00
2018-06-11T11:28:00.172Z,14036.00
2018-06-11T11:29:00.181Z,13872.00
2018-06-11T11:30:00.208Z,13228.00
2018-06-11T11:31:00.203Z,12468.00
2018-06-11T11:32:00.213Z,11932.00
2018-06-11T11:33:00.226Z,11676.00
2018-06-11T11:34:00.233Z,13048.00
2018-06-11T11:35:00.243Z,15360.00
2018-06-11T11:36:00.253Z,15808.00
2018-06-11T11:37:00.262Z,15164.00
2018-06-11T11:38:00.274Z,14468.00
2018-06-11T11:39:00.278Z,14380.00
2018-06-11T11:40:00.289Z,15172.00
2018-06-11T11:41:00.305Z,15192.00
2018-06-11T11:42:00.315Z,15568.00
2018-06-11T11:43:00.318Z,15124.00
2018-06-11T11:44:00.333Z,14884.00
2018-06-11T11:45:00.336Z,14900.00
2018-06-11T11:46:00.347Z,15008.00
2018-06-11T11:47:00.356Z,14964.00
2018-06-11T11:48:00.367Z,14692.00
2018-06-11T11:49:00.376Z,14256.00
2018-06-11T11:50:00.387Z,14124.00
2018-06-11T11:51:00.397Z,14212.00
2018-06-11T11:52:00.400Z,15240.00
2018-06-11T11:53:00.414Z,15516.00
2018-06-11T11:54:00.420Z,15744.00
2018-06-11T11:55:00.434Z,15976.00
2018-06-11T11:56:00.443Z,16480.00
2018-06-11T11:57:00.453Z,17536.00
2018-06-11T11:58:00.465Z,18496.00
2018-06-11T11:59:00.464Z,18592.00
2018-06-11T12:00:00.483Z,18496.00
2018-06-11T12:01:00.496Z,17856.00
2018-06-11T12:02:00.503Z,17632.00
2018-06-11T12:03:00.511Z,17472.00
2018-06-11T12:04:00.541Z,16832.00
2018-06-11T12:05:00.533Z,15704.00
2018-06-11T12:06:00.541Z,14544.00
2018-06-11T12:07:00.553Z,13540.00
2018-06-11T12:08:00.564Z,14400.00
2018-06-11T12:09:00.572Z,14420.00
2018-06-11T12:10:00.580Z,14412.00
2018-06-11T12:11:00.594Z,14060.00
2018-06-11T12:12:00.604Z,13372.00
2018-06-11T12:13:00.613Z,13188.00
2018-06-11T12:14:00.626Z,13428.00
2018-06-11T12:15:00.632Z,14136.00
2018-06-11T12:16:00.644Z,14676.00
2018-06-11T12:17:00.653Z,14616.00
2018-06-11T12:18:00.665Z,14280.00
2018-06-11T12:19:00.715Z,14392.00
2018-06-11T12:20:00.681Z,14220.00
2018-06-11T12:21:00.694Z,14340.00
2018-06-11T12:22:00.710Z,15040.00
2018-06-11T12:23:00.716Z,15744.00
2018-06-11T12:24:00.726Z,16992.00
2018-06-11T12:25:00.734Z,18432.00
2018-06-11T12:26:00.744Z,19584.00
2018-06-11T12:27:00.754Z,20224.00
2018-06-11T12:28:00.761Z,19424.00
2018-06-11T12:29:00.777Z,18048.00
2018-06-11T12:30:00.786Z,14744.00
2018-06-11T12:31:00.794Z,12864.00
2018-06-11T12:32:00.805Z,13676.00
2018-06-11T12:33:00.821Z,14712.00
2018-06-11T12:34:00.824Z,16660.00
2018-06-11T12:35:00.835Z,17344.00
2018-06-11T12:36:00.842Z,18112.00
2018-06-11T12:37:00.856Z,18368.00
2018-06-11T12:38:00.868Z,17056.00
2018-06-11T12:39:00.874Z,17184.00
2018-06-11T12:40:00.885Z,16960.00
2018-06-11T12:41:00.895Z,17920.00
2018-06-11T12:42:00.904Z,17216.00
2018-06-11T12:43:00.910Z,17248.00
2018-06-11T12:44:00.929Z,17472.00
2018-06-11T12:45:00.938Z,18208.00
2018-06-11T12:46:00.946Z,18176.00
2018-06-11T12:47:00.954Z,18272.00
2018-06-11T12:48:00.968Z,17728.00
2018-06-11T12:49:00.975Z,17824.00
2018-06-11T12:50:00.988Z,17824.00
2018-06-11T12:51:00.999Z,17920.00
2018-06-11T12:52:01.010Z,17952.00
2018-06-11T12:53:01.021Z,17792.00
2018-06-11T12:54:01.030Z,17696.00
2018-06-11T12:55:01.044Z,17792.00
2018-06-11T12:56:01.049Z,17824.00
2018-06-11T12:57:01.065Z,17664.00
2018-06-11T12:58:01.073Z,17664.00
2018-06-11T12:59:01.081Z,18944.00
2018-06-11T13:00:01.093Z,18624.00
2018-06-11T13:01:01.101Z,17728.00
2018-06-11T13:02:01.112Z,17216.00
2018-06-11T13:03:01.124Z,16320.00
2018-06-11T13:04:01.142Z,15748.00
2018-06-11T13:05:01.146Z,15484.00
2018-06-11T13:06:01.157Z,15624.00
2018-06-11T13:07:01.168Z,15616.00
2018-06-11T13:08:01.180Z,15472.00
2018-06-11T13:09:01.191Z,15424.00
2018-06-11T13:10:01.202Z,15400.00
2018-06-11T13:11:01.209Z,15888.00
2018-06-11T13:12:01.218Z,17536.00
2018-06-11T13:13:01.227Z,21280.00
2018-06-11T13:14:01.305Z,23072.00
2018-06-11T13:15:01.255Z,20864.00
2018-06-11T13:16:01.266Z,19168.00
2018-06-11T13:17:01.275Z,17696.00
2018-06-11T13:18:01.286Z,18592.00
2018-06-11T13:19:01.295Z,20032.00
2018-06-11T13:20:01.302Z,19392.00
2018-06-11T13:21:01.322Z,20224.00
2018-06-11T13:22:01.353Z,19744.00
2018-06-11T13:23:01.336Z,18880.00
2018-06-11T13:24:01.349Z,16992.00
2018-06-11T13:25:01.360Z,15496.00
2018-06-11T13:26:01.367Z,16400.00
2018-06-11T13:27:01.380Z,16112.00
2018-06-11T13:28:01.396Z,16324.00
2018-06-11T13:29:01.408Z,15772.00
2018-06-11T13:30:01.415Z,16824.00
2018-06-11T13:31:01.427Z,18112.00
2018-06-11T13:32:01.436Z,18272.00
2018-06-11T13:33:01.448Z,18304.00
2018-06-11T13:34:01.458Z,18656.00
2018-06-11T13:35:01.471Z,17984.00
2018-06-11T13:36:01.482Z,18272.00
2018-06-11T13:37:01.534Z,17696.00
2018-06-11T13:38:01.504Z,17536.00
2018-06-11T13:39:01.512Z,17952.00
2018-06-11T13:40:01.525Z,18176.00
2018-06-11T13:41:01.534Z,18208.00
2018-06-11T13:42:01.548Z,19072.00
2018-06-11T13:43:01.579Z,19424.00
2018-06-11T13:44:01.577Z,19232.00
2018-06-11T13:45:01.580Z,19776.00
2018-06-11T13:46:01.589Z,18656.00
2018-06-11T13:47:01.599Z,16640.00
2018-06-11T13:48:01.605Z,15080.00
2018-06-11T13:49:01.623Z,15012.00
2018-06-11T13:50:01.635Z,16184.00
2018-06-11T13:51:01.648Z,20032.00
2018-06-11T13:52:01.715Z,22912.00
2018-06-11T13:53:01.669Z,28928.00
2018-06-11T13:54:01.682Z,16992.00
2018-06-11T13:55:01.692Z,15356.00
2018-06-11T13:56:01.702Z,14592.00
2018-06-11T13:57:01.767Z,14108.00
2018-06-11T13:58:01.726Z,18720.00
2018-06-11T13:59:01.745Z,26880.00
2018-06-11T14:00:01.748Z,35616.00
2018-06-11T14:01:01.757Z,38528.00
2018-06-11T14:02:01.769Z,34016.00
2018-06-11T14:03:01.781Z,32800.00
2018-06-11T14:04:01.789Z,29184.00
2018-06-11T14:05:01.804Z,22080.00
2018-06-11T14:06:01.810Z,20128.00
2018-06-11T14:07:01.824Z,14364.00
2018-06-11T14:08:01.852Z,13892.00
2018-06-11T14:09:01.850Z,14040.00
2018-06-11T14:10:01.860Z,27584.00
2018-06-11T14:11:01.875Z,28928.00
2018-06-11T14:12:01.909Z,26784.00
2018-06-11T14:13:01.894Z,20256.00
2018-06-11T14:14:01.906Z,26560.00
2018-06-11T14:15:01.919Z,20160.00
2018-06-11T14:16:01.931Z,22240.00
2018-06-11T14:17:01.939Z,26240.00
2018-06-11T14:18:01.954Z,26464.00
2018-06-11T14:19:01.968Z,26048.00
2018-06-11T14:20:01.983Z,24992.00
2018-06-11T14:21:01.991Z,24768.00
2018-06-11T14:22:02.006Z,25760.00
2018-06-11T14:23:02.015Z,25824.00
2018-06-11T14:24:02.042Z,23936.00
2018-06-11T14:25:02.090Z,21376.00
2018-06-11T14:26:02.053Z,15456.00
2018-06-11T14:27:02.064Z,15712.00
2018-06-11T14:28:02.077Z,17568.00
2018-06-11T14:29:02.090Z,19392.00
2018-06-11T14:30:02.102Z,24096.00
2018-06-11T14:31:02.162Z,23168.00
2018-06-11T14:32:02.133Z,17792.00
2018-06-11T14:33:02.142Z,15752.00
2018-06-11T14:34:02.153Z,12792.00
2018-06-11T14:35:02.166Z,12404.00
2018-06-11T14:36:02.178Z,13116.00
2018-06-11T14:37:02.184Z,14356.00
2018-06-11T14:38:02.202Z,15976.00
2018-06-11T14:39:02.213Z,15792.00
2018-06-11T14:40:02.228Z,14676.00
2018-06-11T14:41:02.248Z,14600.00
2018-06-11T14:42:02.255Z,15500.00
2018-06-11T14:43:02.260Z,16248.00
2018-06-11T14:44:02.274Z,17408.00
2018-06-11T14:45:02.283Z,21408.00
2018-06-11T14:46:02.295Z,21952.00
2018-06-11T14:47:02.308Z,21536.00
2018-06-11T14:48:02.319Z,20512.00
2018-06-11T14:49:02.331Z,18656.00
2018-06-11T14:50:02.337Z,17184.00
2018-06-11T14:51:02.381Z,15804.00
2018-06-11T14:52:02.360Z,15168.00
2018-06-11T14:53:02.377Z,14852.00
2018-06-11T14:54:02.389Z,14340.00
2018-06-11T14:55:02.403Z,11772.00
2018-06-11T14:56:02.410Z,10760.00
2018-06-11T14:57:02.419Z,9772.00
2018-06-11T14:58:02.458Z,9544.00
2018-06-11T14:59:02.446Z,9540.00
2018-06-11T15:00:02.458Z,9784.00
2018-06-11T15:01:02.470Z,10956.00
2018-06-11T15:02:02.515Z,11688.00
2018-06-11T15:03:02.506Z,12368.00
2018-06-11T15:04:02.513Z,12484.00
2018-06-11T15:05:02.519Z,12376.00
2018-06-11T15:06:02.529Z,12224.00
2018-06-11T15:07:02.537Z,11896.00
2018-06-11T15:08:02.549Z,11312.00
2018-06-11T15:09:02.565Z,10892.00
2018-06-11T15:10:02.568Z,10736.00
2018-06-11T15:11:02.582Z,10548.00
2018-06-11T15:12:02.593Z,10520.00
2018-06-11T15:13:02.602Z,10640.00
2018-06-11T15:14:02.618Z,10792.00
2018-06-11T15:15:02.626Z,10900.00
2018-06-11T15:16:02.637Z,11000.00
2018-06-11T15:17:02.652Z,11048.00
2018-06-11T15:18:02.664Z,10944.00
2018-06-11T15:19:02.673Z,10856.00
2018-06-11T15:20:02.683Z,10664.00
2018-06-11T15:21:02.696Z,10456.00
2018-06-11T15:22:02.701Z,10320.00
2018-06-11T15:23:02.709Z,10288.00
2018-06-11T15:24:02.718Z,10272.00
2018-06-11T15:25:02.737Z,10352.00
2018-06-11T15:26:02.744Z,10516.00
2018-06-11T15:27:02.756Z,10704.00
2018-06-11T15:28:02.768Z,10832.00
2018-06-11T15:29:02.784Z,11024.00
2018-06-11T15:30:02.788Z,11160.00
2018-06-11T15:31:02.800Z,11320.00
2018-06-11T15:32:02.808Z,11452.00
2018-06-11T15:33:02.823Z,11532.00
2018-06-11T15:34:02.830Z,11564.00
2018-06-11T15:35:02.858Z,11324.00
2018-06-11T15:36:02.848Z,11128.00
2018-06-11T15:37:02.873Z,11124.00
2018-06-11T15:38:02.865Z,11004.00
2018-06-11T15:39:02.881Z,10936.00
2018-06-11T15:40:02.889Z,10992.00
2018-06-11T15:41:02.896Z,10960.00
2018-06-11T15:42:02.910Z,10824.00
2018-06-11T15:43:02.917Z,10664.00
2018-06-11T15:44:02.931Z,10488.00
2018-06-11T15:45:02.936Z,10312.00
2018-06-11T15:46:02.954Z,10180.00
2018-06-11T15:47:02.957Z,10084.00
2018-06-11T15:48:02.971Z,10040.00
2018-06-11T15:49:02.985Z,10036.00
2018-06-11T15:50:02.994Z,10012.00
2018-06-11T15:51:03.001Z,9920.00
2018-06-11T15:52:03.010Z,9772.00
2018-06-11T15:53:03.021Z,9580.00
2018-06-11T15:54:03.032Z,9424.00
2018-06-11T15:55:03.038Z,9292.00
2018-06-11T15:56:03.050Z,9096.00
2018-06-11T15:57:03.065Z,8812.00
2018-06-11T15:58:03.068Z,8484.00
2018-06-11T15:59:03.074Z,8208.00
2018-06-11T16:00:03.091Z,8156.00
2018-06-11T16:01:03.093Z,8184.00
2018-06-11T16:02:03.110Z,8236.00
2018-06-11T16:03:03.118Z,8316.00
2018-06-11T16:04:03.120Z,8404.00
2018-06-11T16:05:03.151Z,8420.00
2018-06-11T16:06:03.143Z,8356.00
2018-06-11T16:07:03.154Z,8220.00
2018-06-11T16:08:03.176Z,8204.00
2018-06-11T16:09:03.177Z,8256.00
2018-06-11T16:10:03.185Z,8288.00
2018-06-11T16:11:03.192Z,8376.00
2018-06-11T16:12:03.241Z,8424.00
2018-06-11T16:13:03.211Z,8424.00
2018-06-11T16:14:03.225Z,8348.00
2018-06-11T16:15:03.233Z,8216.00
2018-06-11T16:16:03.242Z,8048.00
2018-06-11T16:17:03.250Z,7852.00
2018-06-11T16:18:03.263Z,7668.00
2018-06-11T16:19:03.272Z,7544.00
2018-06-11T16:20:03.278Z,7424.00
2018-06-11T16:21:03.282Z,7288.00
2018-06-11T16:22:03.299Z,7152.00
2018-06-11T16:23:03.306Z,7048.00
2018-06-11T16:24:03.314Z,6948.00
2018-06-11T16:25:03.324Z,6880.00
2018-06-11T16:26:03.332Z,6824.00
2018-06-11T16:27:03.341Z,6776.00
2018-06-11T16:28:03.350Z,6748.00
2018-06-11T16:29:03.359Z,6696.00
2018-06-11T16:30:03.371Z,6636.00
2018-06-11T16:31:03.381Z,6564.00
2018-06-11T16:32:03.387Z,6480.00
2018-06-11T16:33:03.400Z,6388.00
2018-06-11T16:34:03.403Z,6312.00
2018-06-11T16:35:03.410Z,6248.00
2018-06-11T16:36:03.429Z,6188.00
2018-06-11T16:37:03.457Z,6148.00
2018-06-11T16:38:03.453Z,6128.00
2018-06-11T16:39:03.451Z,6124.00
2018-06-11T16:40:03.472Z,6136.00
2018-06-11T16:41:03.463Z,6172.00
2018-06-11T16:42:03.498Z,6228.00
2018-06-11T16:43:03.539Z,6268.00
2018-06-11T16:44:03.491Z,6320.00
2018-06-11T16:45:03.499Z,6368.00
2018-06-11T16:46:03.507Z,6380.00
2018-06-11T16:47:03.518Z,6384.00
2018-06-11T16:48:03.523Z,6408.00
2018-06-11T16:49:03.541Z,6412.00
2018-06-11T16:50:03.542Z,6380.00
2018-06-11T16:51:03.548Z,6348.00
2018-06-11T16:52:03.556Z,6340.00
2018-06-11T16:53:03.564Z,6352.00
2018-06-11T16:54:03.572Z,6348.00
2018-06-11T16:55:03.581Z,6388.00
2018-06-11T16:56:03.584Z,6524.00
2018-06-11T16:57:03.597Z,6640.00
2018-06-11T16:58:03.607Z,6624.00
2018-06-11T16:59:03.618Z,6420.00
2018-06-11T17:00:03.625Z,6276.00
2018-06-11T17:01:03.637Z,6228.00
2018-06-11T17:02:03.643Z,6148.00
2018-06-11T17:03:03.645Z,5940.00
2018-06-11T17:04:03.656Z,5760.00
2018-06-11T17:05:03.669Z,5600.00
2018-06-11T17:06:03.674Z,5432.00
2018-06-11T17:07:03.683Z,5324.00
2018-06-11T17:08:03.696Z,5204.00
2018-06-11T17:09:03.700Z,5076.00
2018-06-11T17:10:03.701Z,4992.00
2018-06-11T17:11:03.716Z,4940.00
2018-06-11T17:12:03.740Z,5020.00
2018-06-11T17:13:03.733Z,5372.00
2018-06-11T17:14:03.740Z,5876.00
2018-06-11T17:15:03.743Z,6192.00
2018-06-11T17:16:03.760Z,6152.00
2018-06-11T17:17:03.763Z,6084.00
2018-06-11T17:18:03.772Z,5808.00
2018-06-11T17:19:03.783Z,5512.00
2018-06-11T17:20:03.789Z,5200.00
2018-06-11T17:21:03.803Z,4896.00
2018-06-11T17:22:03.805Z,4620.00
2018-06-11T17:23:03.809Z,4428.00
2018-06-11T17:24:03.822Z,4360.00
2018-06-11T17:25:03.822Z,4256.00
2018-06-11T17:26:03.839Z,4208.00
2018-06-11T17:27:03.853Z,4116.00
2018-06-11T17:28:03.846Z,3892.00
2018-06-11T17:29:03.880Z,3632.00
2018-06-11T17:30:03.865Z,3552.00
2018-06-11T17:31:03.878Z,3500.00
2018-06-11T17:32:03.889Z,3468.00
2018-06-11T17:33:03.892Z,3492.00
2018-06-11T17:34:03.901Z,3528.00
2018-06-11T17:35:03.909Z,3544.00
2018-06-11T17:36:03.914Z,3544.00
2018-06-11T17:37:03.918Z,3524.00
2018-06-11T17:38:03.930Z,3520.00
2018-06-11T17:39:03.936Z,3572.00
2018-06-11T17:40:03.944Z,3616.00
2018-06-11T17:41:03.953Z,3624.00
2018-06-11T17:42:03.962Z,3628.00
2018-06-11T17:43:03.970Z,3608.00
2018-06-11T17:44:03.981Z,3556.00
2018-06-11T17:45:03.984Z,3472.00
2018-06-11T17:46:03.994Z,3388.00
2018-06-11T17:47:03.999Z,3324.00
2018-06-11T17:48:04.005Z,3276.00
2018-06-11T17:49:04.014Z,3232.00
2018-06-11T17:50:04.024Z,3212.00
2018-06-11T17:51:04.029Z,3208.00
2018-06-11T17:52:04.044Z,3204.00
2018-06-11T17:53:04.050Z,3200.00
2018-06-11T17:54:04.054Z,3184.00
2018-06-11T17:55:04.058Z,3120.00
2018-06-11T17:56:04.068Z,3012.00
2018-06-11T17:57:04.080Z,2872.00
2018-06-11T17:58:04.080Z,2680.00
2018-06-11T17:59:04.114Z,2408.00
2018-06-11T18:00:04.096Z,2124.00
2018-06-11T18:01:04.105Z,1912.00
2018-06-11T18:02:04.112Z,1772.00
2018-06-11T18:03:04.118Z,1656.00
2018-06-11T18:04:04.127Z,1512.00
2018-06-11T18:05:04.131Z,1320.00
2018-06-11T18:06:04.146Z,1108.00
2018-06-11T18:07:04.149Z,924.00
2018-06-11T18:08:04.148Z,780.00
2018-06-11T18:09:04.155Z,688.00
2018-06-11T18:10:04.163Z,660.00
2018-06-11T18:11:04.171Z,668.00
2018-06-11T18:12:04.182Z,680.00
2018-06-11T18:13:04.206Z,680.00
2018-06-11T18:14:04.196Z,672.00
2018-06-11T18:15:04.201Z,640.00
2018-06-11T18:16:04.210Z,596.00
2018-06-11T18:17:04.217Z,564.00
2018-06-11T18:18:04.227Z,544.00
2018-06-11T18:19:04.223Z,536.00
2018-06-11T18:20:04.242Z,532.00
2018-06-11T18:21:04.245Z,520.00
2018-06-11T18:22:04.254Z,508.00
2018-06-11T18:23:04.251Z,512.00
2018-06-11T18:24:04.265Z,524.00
2018-06-11T18:25:04.272Z,540.00
2018-06-11T18:26:04.279Z,560.00
2018-06-11T18:27:04.283Z,592.00
2018-06-11T18:28:04.291Z,624.00
2018-06-11T18:29:04.298Z,636.00
2018-06-11T18:30:04.303Z,636.00
2018-06-11T18:31:04.312Z,632.00
2018-06-11T18:32:04.317Z,616.00
2018-06-11T18:33:04.320Z,584.00
2018-06-11T18:34:04.379Z,544.00
2018-06-11T18:35:04.334Z,508.00
2018-06-11T18:36:04.345Z,492.00
2018-06-11T18:37:04.351Z,492.00
2018-06-11T18:38:04.360Z,512.00
2018-06-11T18:39:04.364Z,540.00
2018-06-11T18:40:04.389Z,572.00
2018-06-11T18:41:04.383Z,592.00
2018-06-11T18:42:04.469Z,604.00
2018-06-11T18:43:04.399Z,604.00
2018-06-11T18:44:04.397Z,596.00
2018-06-11T18:45:04.397Z,572.00
2018-06-11T18:46:04.412Z,536.00
2018-06-11T18:47:04.417Z,504.00
2018-06-11T18:48:04.420Z,472.00
2018-06-11T18:49:04.431Z,448.00
2018-06-11T18:50:04.431Z,440.00
2018-06-11T18:51:04.439Z,444.00
2018-06-11T18:52:04.451Z,452.00
2018-06-11T18:53:04.450Z,464.00
2018-06-11T18:54:04.460Z,464.00
2018-06-11T18:55:04.464Z,460.00
2018-06-11T18:56:04.473Z,448.00
2018-06-11T18:57:04.483Z,428.00
2018-06-11T18:58:04.487Z,408.00
2018-06-11T18:59:04.493Z,376.00
2018-06-11T19:00:04.502Z,348.00
2018-06-11T19:01:04.506Z,324.00